Latest Observation

30 Stations

15 Minute Data | America/Los_Angeles
as of 5/4/26 12:49 PM PDT
Station Date Time Temp 5ft (°F) Temp 30ft (°F) Inversion (°F) RH (%) Dew Pt (°F) Wind Spd (mph) Wind Gust (mph) Solar Rad (W/m2) Daily Min Temp (°F) Daily Max Temp (°F) Daily Rain (In) Daily ETo (in)
Shandon ETo (SLO-1) 5/4/26 1245 64.6   4.3 63.2   4.2 -1.4 44   15 42.4   3.6 6.3   4.2 11.8   3.7 923   391 42.4   5.6 66.7   4.5 0.00 0.061   0.018
Creston Rd (SLO-2) 5/4/26 1245 65.0   3.2 62.6   2.9 -2.4 49   5 45.2   0.4 7.7   0.9 14.5   2.0 554   75 38.2   5.6 67.8   4.0 0.00 0.051   0.015
NE Paso Robles (SLO-3) 5/4/26 1245 67.7   2.8 65.1   3.5 -2.6 44   6 45.3   0.7 4.8   2.7 10.1   2.7 747   5 39.1   6.2 69.5   3.1 0.00 0.052   0.016
Cross Canyon Rd (SLO-4) 5/4/26 1245 64.7   0.5 63.4   1.8 -1.4 44   6 42.4   3.0 3.9   1.4 8.4   0.7 434   263 39.2   5.4 67.2   2.2 0.00 0.057   0.028
Willow Creek (SLO-5) 5/4/26 1245 62.5   5.3 60.6   4.4 -1.9 54   8 45.9   1.5 6.6   1.1 14.2   2.3 1,193   608 35.0   5.4 63.5   5.2 0.00 0.051   0.021
Shell Creek Rd (SLO-6) 5/4/26 1245 66.0   5.0 64.6   5.0 -1.4 40   17 40.9   4.9 5.0   2.2 12.8   0.7 463   51 44.0   4.1 69.8   5.5 0.00 0.059   0.008
South Shandon (SLO-7) 5/4/26 1245 65.1   2.3 63.6   2.8 -1.5 43   10 41.9   3.6 5.4   1.0 11.8   0.3 692   137 39.1   9.8 68.0   3.5 0.00 0.059   0.012
South Creston (SLO-8) 5/4/26 1245 66.3   4.5 63.4   3.6 -2.9 46   9 45.1   0.5 7.5   1.1 13.8   1.3 762   268 38.2   10.6 68.9   5.7 0.00 0.053   0.016
Pozo Rd (SLO-9) 5/4/26 1245 59.3   0.6 57.5   0.4 -1.7 63   2 46.6   0.4 7.5   1.7 12.1   2.0 468   66 33.8   13.7 63.3   1.7 0.00 0.042   0.015
Experimental Station (SLO-10) 5/4/26 1245 66.3   4.0 64.4   4.2 -1.9 45   8 44.4   0.7 2.1   0.3 6.8   2.0 541   65 38.2   7.5 67.7   3.2 0.00 0.054   0.022
Vineyard Drive (SLO-11) 5/4/26 1245 62.5   3.2 61.5   3.5 -1.0 55   6 46.1   0.2 4.3   0.1 15.8   6.4 806   199 31.4   7.0 65.1   4.5 0.00 0.050   0.017
Von Dollen Road (SLO-12) 5/4/26 1245 64.2   4.4 62.5   4.2 -1.7 57   19 48.6   3.5 4.2   1.7 13.2   2.3 478   54 41.0   3.3 65.6   5.0 0.00 0.056   0.030
Templeton Gap West (SLO-13) 5/4/26 1245 64.7   1.7 63.1   2.5 -1.6 51   5 46.3   1.1 4.4   0.2 10.5   0.7 438   128 31.7   7.3 68.9   4.4 0.00 0.058   0.030
Orcutt Road (SLO-14) 5/4/26 1245 66.1   2.4 63.5   1.2 -2.5 53   4 48.5   0.2 5.4   3.3 12.1   4.0 1,069   531 40.7   12.0 67.3   2.0 0.00 0.055   0.023
Tiffany Ranch Rd (SLO-15) 5/4/26 1245 65.7   0.1 63.4   0.2 -2.3 56   2 49.6   0.9 6.2   0.9 14.2   1.3 1,028   54 40.2   12.1 67.6   1.0 0.00 0.062   0.031
Chimney Rock Rd (SLO-16) 5/4/26 1245 58.8   0.1 58.2   0.8 -0.6 60   0 44.8   0.1 4.5   1.1 11.8   1.0 319   434 36.4   4.9 63.7   3.4 0.00 0.056   0.027
Nipomo Mesa (SLO-17) 5/4/26 1245 64.2   0.8 62.4   0.2 -1.8 58   6 49.2   2.2 4.5   0.1 7.4   2.7 523   216 39.0   12.7 68.3   0.9 0.00 0.057   0.020
Morro Creek (SLO-18) 5/4/26 1245 62.2   0.0 60.5   0.6 -1.8 70   1 52.2   0.3 0.0   0.0 1.4   0.7 822   107 42.4   7.6 64.6   1.2 0.00 0.060   0.022
Paso Robles Airport ETo 5/4/26 1245 63.5   1.5 62.6   1.7 -0.9 52   4 45.6   0.6 5.1   1.2 15.5   4.7 706   19 37.4   7.4 65.1   2.1 0.00 0.051   0.022
West Shandon (SLO-20) 5/4/26 1245 66.9   4.1 64.4   3.9 -2.6 41   14 42.7   4.0 6.8   2.4 13.5   3.7 733   199 41.8   7.1 68.5   4.1 0.00 0.062   0.017
West San Miguel (SLO-21) 5/4/26 1245 64.4   0.3 - - 41   3 40.5   1.3 1.7   2.9 7.1   1.7 658   319 35.5   10.0 66.0   0.7 0.00 0.054   0.024
Adelaida Road (SLO-22) 5/4/26 1245 59.6   0.4 58.8   1.0 -0.8 51   0 41.6   0.1 4.7   0.6 9.3   2.2 231   631 36.8   4.0 61.8   1.5 0.00 0.045   0.018
East Whitley Gardens (SLO-23) 5/4/26 1245 64.7   4.2 63.1   4.2 -1.6 37   13 37.8   4.0 4.7   3.3 12.1   1.7 522   10 41.0   7.0 65.8   3.1 0.00 0.064   0.020
Estrella Road (SLO-24) 5/4/26 1245 63.6   1.5 - - 44   3 41.6   0.5 3.5   2.9 9.3   4.5 530   219 40.0   6.5 65.9   2.7 0.00 0.056   0.026
Camatta Creek (SLO-25) 5/4/26 1245 64.8   4.4 - - 40   12 40.1   2.7 4.8   5.2 10.5   7.3 757   209 43.8   5.0 65.8   5.1 0.00 0.062   0.015
East-Shandon (SLO-26) 5/4/26 1245 66.1   5.2 - - 36   14 38.7   3.9 5.6   4.7 11.6   6.2 994   457 41.2   8.5 67.2   5.2 0.00 0.061   0.012
Templeton East (SLO-27) 5/4/26 1245 64.5   2.8 - - 47   4 43.9   0.4 3.0   1.0 7.1   3.4 416   99 37.9   7.7 66.5   1.2 0.00 0.054   0.022
Ground Squirrel Hollow (SLO-28) 5/4/26 1245 62.7   3.3 - - 41   12 38.7   3.7 1.6   5.2 8.2   6.7 1,044   492 43.8   4.2 64.3   3.2 0.00 0.052   0.014
East Paso Robles (SLO-29) 5/4/26 1245 64.7   3.1 - - 42   7 41.4   1.2 4.2   3.6 10.5   4.5 801   85 41.0   4.7 65.6   3.1 0.00 0.051   0.014
Max     67.7 65.1 -0.6 70 52.2 7.7 15.8 1,193 44.0 69.8 0.00 0.064
Avg     64.2 62.4 -1.7 49 44.1 4.7 10.9 678 - - - -
Min     58.8 57.5 -2.9 36 37.8 0.0 1.4 231 31.4 61.8 0.00 0.042